Bishop, Illinois
Current Conditions -  °F | °C
As of 7:54 AM on Monday 26 Jan 2015 (Local Time) from KPIA Reporting Station
Overcast Overcast  
Wind Chill: -6°   Ceiling: 11000
Heat Index: -6°   Visibility: 10mi
Dew Point: -9°   Wind: 3mph
Humidity: 78%   Direction: 270°W
Pressure: 30.01"   Gusts: NA
Location:  40.3389°N, 89.8274°W
Report Text: KPIA 261354Z 27003KT 10SM OVC110 M06/M09 A3001 RMK AO2 SLP172 T10611094
Loading
Personal Weather Stations






























Interactive Weather Map New forecast layout! Learn more

10-Day Weather Forecast

Advertisements
Track Severe Weather on mobile